ENOV/HOV METAR and TAF weather

Enter ICAO airport designator
Station Type Date Time Source
ENOV METAR 2019/12/13 13:20 UTC NOAA

ENOV 131320Z VRB04KT CAVOK 05/M07 Q0983 RMK WIND 2175FT 13020KT


Station Type Date Time Source
ENOV Decoded METAR 2019/12/13 13:20 UTC NOAA

Orsta-Volda / Hovden, Norway (ENOV) 62-11N 006-04E 74M
Dec 13, 2019 - 08:20 AM EST / 2019.12.13 1320 UTC
Wind: Variable at 5 MPH (4 KT):0
Visibility: greater than 7 mile(s):0
Temperature: 41 F (5 C)
Dew Point: 19 F (-7 C)
Relative Humidity: 41%
Pressure (altimeter): 29.03 in. Hg (0983 hPa)
ob: ENOV 131320Z VRB04KT CAVOK 05/M07 Q0983 RMK WIND 2175FT 13020KT
cycle: 13

Station Type Date Time Source
ENOV TAF UTC NOAA

Error!

Example: see airport list